createdAt,value
2022-10-01T00:02:00.177Z,68.38
2022-10-01T00:04:27.201Z,68.27
2022-10-01T00:06:53.395Z,68.38
2022-10-01T00:09:19.863Z,68.11
2022-10-01T00:11:45.911Z,68.04
2022-10-01T00:14:12.007Z,68.08
2022-10-01T00:16:38.264Z,68.16
2022-10-01T00:19:04.469Z,67.87
2022-10-01T00:21:32.368Z,68.12
2022-10-01T00:24:04.319Z,68.36
2022-10-01T00:26:35.398Z,68.20
2022-10-01T00:29:04.496Z,68.57
2022-10-01T00:31:31.498Z,68.37
2022-10-01T00:33:59.915Z,68.48
2022-10-01T00:36:26.887Z,68.38
2022-10-01T00:38:53.745Z,68.38
2022-10-01T00:41:19.848Z,68.49
2022-10-01T00:43:49.478Z,68.52
2022-10-01T00:46:21.865Z,68.55
2022-10-01T00:49:02.212Z,68.75
2022-10-01T00:51:32.340Z,68.62
2022-10-01T00:54:08.163Z,68.84
2022-10-01T00:56:34.258Z,68.75
2022-10-01T00:59:01.809Z,68.48
2022-10-01T01:01:28.163Z,68.72
2022-10-01T01:03:54.811Z,69.20
2022-10-01T01:06:20.897Z,68.89
2022-10-01T01:08:53.021Z,68.93
2022-10-01T01:11:37.851Z,69.23
2022-10-01T01:14:45.737Z,69.12
2022-10-01T01:17:19.184Z,69.59
2022-10-01T01:20:13.481Z,69.34
2022-10-01T01:22:49.878Z,69.45
2022-10-01T01:25:28.710Z,69.63
2022-10-01T01:28:12.964Z,69.49
2022-10-01T01:30:41.314Z,69.68
2022-10-01T01:33:15.372Z,69.83
2022-10-01T01:35:47.670Z,69.72
2022-10-01T01:38:18.776Z,69.48
2022-10-01T02:38:37.264Z,71.33
2022-10-01T02:41:07.319Z,70.87
2022-10-01T02:43:59.678Z,70.75
2022-10-01T02:46:34.784Z,70.84
2022-10-01T02:49:02.484Z,70.88
2022-10-01T02:51:37.502Z,71.00
2022-10-01T02:54:26.448Z,70.89
2022-10-01T02:57:11.649Z,71.16
2022-10-01T02:59:37.715Z,71.55
2022-10-01T03:02:04.034Z,71.28
2022-10-01T03:04:30.501Z,71.32
2022-10-01T03:07:03.096Z,71.38
2022-10-01T03:09:34.639Z,71.13
2022-10-01T03:12:01.330Z,70.97
2022-10-01T03:14:27.649Z,71.17
2022-10-01T03:16:53.882Z,71.04
2022-10-01T03:19:20.598Z,71.12
2022-10-01T03:21:47.304Z,71.23
2022-10-01T03:24:13.563Z,71.10
2022-10-01T03:26:40.639Z,70.71
2022-10-01T03:29:06.704Z,70.93
2022-10-01T03:31:33.107Z,70.85
2022-10-01T03:34:00.362Z,70.88
2022-10-01T03:36:27.613Z,70.41
2022-10-01T03:38:53.664Z,70.83
2022-10-01T03:41:19.825Z,70.75
2022-10-01T03:43:45.907Z,70.93
2022-10-01T03:46:11.983Z,71.17
2022-10-01T04:00:14.021Z,71.59
2022-10-01T04:02:40.190Z,71.53
2022-10-01T04:09:11.812Z,71.42
2022-10-01T04:11:40.784Z,71.51
2022-10-01T04:14:06.776Z,71.72
2022-10-01T04:16:35.659Z,71.66
2022-10-01T04:19:03.352Z,71.63
2022-10-01T04:21:29.413Z,71.76
2022-10-01T04:23:55.860Z,71.91
2022-10-01T04:26:21.901Z,71.86
2022-10-01T04:28:47.961Z,71.78
2022-10-01T04:31:26.904Z,71.79
2022-10-01T05:16:55.693Z,72.57
2022-10-01T05:23:21.410Z,72.83
2022-10-01T05:29:23.884Z,72.29
2022-10-01T05:31:50.093Z,72.42
2022-10-01T05:34:16.195Z,72.76
2022-10-01T05:36:42.283Z,72.60
2022-10-01T05:39:08.833Z,72.65
2022-10-01T05:41:35.031Z,72.81
2022-10-01T05:44:02.552Z,72.88
2022-10-01T05:46:28.647Z,72.85
2022-10-01T05:48:54.662Z,72.80
2022-10-01T05:51:20.907Z,72.54
2022-10-01T05:53:50.549Z,72.63
2022-10-01T05:56:16.792Z,72.58
2022-10-01T05:58:43.001Z,72.38
2022-10-01T06:01:09.091Z,72.30
2022-10-01T06:03:35.719Z,71.94
2022-10-01T06:06:01.807Z,71.85
2022-10-01T06:08:28.123Z,71.71
2022-10-01T06:10:58.708Z,71.51
2022-10-01T06:13:26.487Z,71.44
2022-10-01T06:15:52.913Z,71.44
2022-10-01T06:18:19.051Z,71.59
2022-10-01T06:40:31.201Z,72.66
2022-10-01T06:42:58.217Z,72.83
2022-10-01T06:45:29.939Z,72.60
2022-10-01T06:47:58.151Z,72.44
2022-10-01T06:50:24.801Z,72.35
2022-10-01T06:52:51.695Z,72.39
2022-10-01T06:55:25.409Z,72.14
2022-10-01T07:10:18.584Z,72.46
2022-10-01T07:12:45.728Z,72.64
2022-10-01T07:15:22.327Z,72.70
2022-10-01T07:18:16.292Z,72.41
2022-10-01T07:32:16.389Z,72.51
2022-10-01T07:34:44.172Z,72.47
2022-10-01T07:37:59.692Z,72.12
2022-10-01T07:40:26.808Z,72.14
2022-10-01T07:42:55.291Z,72.14
2022-10-01T07:45:25.732Z,71.98
2022-10-01T07:47:59.977Z,72.04
2022-10-01T07:50:29.268Z,72.02
2022-10-01T07:52:57.669Z,72.07
2022-10-01T07:55:26.905Z,72.28
2022-10-01T07:57:54.682Z,72.42
2022-10-01T08:00:22.686Z,72.39
2022-10-01T08:02:50.259Z,72.21
2022-10-01T08:05:18.659Z,72.21
2022-10-01T08:07:46.223Z,72.09
2022-10-01T08:10:12.875Z,72.09
2022-10-01T08:12:39.610Z,71.95
2022-10-01T08:15:14.725Z,72.12
2022-10-01T08:17:41.833Z,72.31
2022-10-01T08:20:10.511Z,72.25
2022-10-01T08:22:41.089Z,72.42
2022-10-01T08:36:41.468Z,72.49
2022-10-01T08:39:07.686Z,72.35
2022-10-01T08:42:29.765Z,72.52
2022-10-01T08:48:44.578Z,73.06
2022-10-01T08:51:38.909Z,72.96
2022-10-01T08:54:28.556Z,73.03
2022-10-01T08:57:02.085Z,72.75
2022-10-01T08:59:46.722Z,72.29
2022-10-01T09:02:26.284Z,72.16
2022-10-01T09:09:08.411Z,72.57
2022-10-01T09:12:00.682Z,72.49
2022-10-01T09:14:32.771Z,72.16
2022-10-01T09:17:21.576Z,71.42
2022-10-01T09:20:10.643Z,71.17
2022-10-01T09:22:47.026Z,71.09
2022-10-01T09:25:21.881Z,70.81
2022-10-01T09:27:49.334Z,70.85
2022-10-01T09:30:20.060Z,70.36
2022-10-01T09:32:57.065Z,70.23
2022-10-01T09:35:43.842Z,70.28
2022-10-01T09:38:22.860Z,70.22
2022-10-01T09:40:55.573Z,70.02
2022-10-01T09:43:33.669Z,69.66
2022-10-01T09:46:00.257Z,69.97
2022-10-01T09:48:29.015Z,69.60
2022-10-01T09:51:01.573Z,69.28
2022-10-01T09:53:40.739Z,69.33
2022-10-01T09:56:28.967Z,69.18
2022-10-01T09:58:59.905Z,69.56
2022-10-01T10:01:43.171Z,69.68
2022-10-01T10:04:10.438Z,70.09
2022-10-01T10:06:38.199Z,70.07
2022-10-01T10:09:04.805Z,69.46
2022-10-01T10:11:32.677Z,68.73
2022-10-01T10:14:02.979Z,68.59
2022-10-01T10:16:36.705Z,68.82
2022-10-01T10:19:14.703Z,68.55
2022-10-01T10:21:51.511Z,68.74
2022-10-01T10:24:36.314Z,68.72
2022-10-01T10:27:05.989Z,68.87
2022-10-01T10:29:34.633Z,68.75
2022-10-01T10:32:26.940Z,68.84
2022-10-01T10:35:02.714Z,68.85
2022-10-01T10:37:34.042Z,68.85
2022-10-01T10:40:00.465Z,68.73
2022-10-01T10:42:27.095Z,68.52
2022-10-01T10:44:56.390Z,68.61
2022-10-01T10:47:23.834Z,68.77
2022-10-01T10:49:55.597Z,69.27
2022-10-01T10:52:35.690Z,69.40
2022-10-01T10:55:18.507Z,69.89
2022-10-01T10:57:46.716Z,69.90
2022-10-01T11:00:18.139Z,70.29
2022-10-01T11:03:46.793Z,70.43
2022-10-01T11:09:29.504Z,70.71
2022-10-01T11:12:36.111Z,70.56
2022-10-01T11:19:32.362Z,69.30
2022-10-01T11:22:25.600Z,68.98
2022-10-01T11:25:32.202Z,68.41
2022-10-01T11:28:19.859Z,68.81
2022-10-01T11:30:54.917Z,68.94
2022-10-01T11:34:00.454Z,68.82
2022-10-01T11:37:12.785Z,68.82
2022-10-01T11:39:43.174Z,68.80
2022-10-01T11:42:16.399Z,68.93
2022-10-01T11:44:48.905Z,69.20
2022-10-01T11:47:23.766Z,69.24
2022-10-01T11:50:03.951Z,69.92
2022-10-01T11:53:09.012Z,70.68
2022-10-01T11:56:03.169Z,71.26
2022-10-01T11:58:52.455Z,71.52
2022-10-01T12:01:35.560Z,71.66
2022-10-01T12:04:22.352Z,71.58
2022-10-01T12:07:05.382Z,72.21
2022-10-01T12:09:55.440Z,72.16
2022-10-01T12:12:31.451Z,72.13
2022-10-01T12:15:18.428Z,71.94
2022-10-01T12:18:10.673Z,71.91
2022-10-01T12:20:43.944Z,72.05
2022-10-01T12:23:25.968Z,71.89
2022-10-01T12:25:58.021Z,71.53
2022-10-01T12:28:30.760Z,71.08
2022-10-01T12:31:07.972Z,71.23
2022-10-01T12:33:51.277Z,70.94
2022-10-01T12:36:38.246Z,71.50
2022-10-01T12:39:13.607Z,71.74
2022-10-01T12:42:14.425Z,72.07
2022-10-01T12:45:43.352Z,72.88
2022-10-01T12:48:21.601Z,73.07
2022-10-01T12:51:41.272Z,72.92
2022-10-01T12:54:45.570Z,72.62
2022-10-01T12:57:14.267Z,72.66
2022-10-01T12:59:49.098Z,71.91
2022-10-01T13:02:27.425Z,71.93
2022-10-01T13:20:06.867Z,72.36
2022-10-01T13:22:55.066Z,72.36
2022-10-01T13:25:26.915Z,72.59
2022-10-01T13:28:32.208Z,72.10
2022-10-01T13:31:02.151Z,72.19
2022-10-01T13:33:40.290Z,71.93
2022-10-01T13:36:14.706Z,71.90
2022-10-01T13:38:51.529Z,72.07
2022-10-01T13:49:24.917Z,73.02
2022-10-01T13:52:20.499Z,72.50
2022-10-01T13:55:00.822Z,72.71
2022-10-01T13:57:34.518Z,72.62
2022-10-01T14:00:19.771Z,72.64
2022-10-01T14:03:06.270Z,72.67
2022-10-01T14:05:35.225Z,72.80
2022-10-01T14:08:14.168Z,72.68
2022-10-01T14:11:16.227Z,72.49
2022-10-01T14:14:25.669Z,72.88
2022-10-01T14:16:56.181Z,73.06
2022-10-01T14:19:26.764Z,72.45
2022-10-01T14:22:03.447Z,72.42
2022-10-01T14:24:40.953Z,72.44
2022-10-01T14:27:26.318Z,72.53
2022-10-01T14:30:06.354Z,72.61
2022-10-01T14:32:57.054Z,72.61
2022-10-01T14:35:40.637Z,72.54
2022-10-01T14:38:33.897Z,72.32
2022-10-01T14:41:01.461Z,72.50
2022-10-01T14:43:32.406Z,72.57
2022-10-01T14:46:00.369Z,72.55
2022-10-01T14:48:39.878Z,72.95
2022-10-01T14:51:22.697Z,72.91
2022-10-01T14:53:51.994Z,72.58
2022-10-01T14:56:19.310Z,72.66
2022-10-01T15:02:32.418Z,72.98
2022-10-01T16:30:57.062Z,73.73
2022-10-01T16:37:47.852Z,73.51
2022-10-01T16:44:13.528Z,73.71
2022-10-01T16:47:27.140Z,73.57
2022-10-01T17:01:27.424Z,73.49
2022-10-01T17:03:53.502Z,73.26
2022-10-01T17:06:19.611Z,73.20
2022-10-01T17:09:39.045Z,73.32
2022-10-01T17:12:05.212Z,73.51
2022-10-01T17:14:31.242Z,73.77
2022-10-01T17:16:57.835Z,73.89
2022-10-01T17:19:24.429Z,73.84
2022-10-01T17:21:50.673Z,73.86
2022-10-01T17:24:17.522Z,74.08
2022-10-01T17:26:44.988Z,74.13
2022-10-01T17:29:11.552Z,73.97
2022-10-01T17:31:40.446Z,74.27
2022-10-01T17:34:06.809Z,74.21
2022-10-01T17:36:34.831Z,74.23
2022-10-01T17:39:01.531Z,74.36
2022-10-01T17:41:27.593Z,74.21
2022-10-01T17:43:53.834Z,74.49
2022-10-01T17:46:20.153Z,74.71
2022-10-01T17:48:50.312Z,74.56
2022-10-01T17:51:17.090Z,74.64
2022-10-01T17:53:43.630Z,74.81
2022-10-01T17:56:14.037Z,74.88
2022-10-01T17:58:44.817Z,74.80
2022-10-01T18:01:22.229Z,74.83
2022-10-01T18:03:55.449Z,75.04
2022-10-01T18:06:22.969Z,75.10
2022-10-01T18:08:55.446Z,75.02
2022-10-01T18:11:23.723Z,75.11
2022-10-01T18:13:50.641Z,75.17
2022-10-01T18:16:19.291Z,75.27
2022-10-01T18:19:51.846Z,75.22
2022-10-01T18:21:32.311Z,75.30
2022-10-01T18:24:01.939Z,75.53
2022-10-01T18:26:30.443Z,75.43
2022-10-01T18:28:56.486Z,75.11
2022-10-01T18:31:28.237Z,75.29
2022-10-01T18:33:57.182Z,75.42
2022-10-01T18:36:32.980Z,75.44
2022-10-01T18:39:10.096Z,75.44
2022-10-01T18:41:38.681Z,75.54
2022-10-01T18:44:11.672Z,75.52
2022-10-01T18:46:44.751Z,75.39
2022-10-01T18:49:20.775Z,75.25
2022-10-01T18:52:31.638Z,75.55
2022-10-01T18:55:24.739Z,75.65
2022-10-01T18:58:18.824Z,75.68
2022-10-01T19:00:44.888Z,75.76
2022-10-01T19:03:27.315Z,75.53
2022-10-01T19:06:15.335Z,75.36
2022-10-01T19:09:22.954Z,75.45
2022-10-01T19:11:57.795Z,75.73
2022-10-01T19:14:41.605Z,75.92
2022-10-01T19:17:07.608Z,75.84
2022-10-01T19:19:54.631Z,75.84
2022-10-01T19:22:39.263Z,75.90
2022-10-01T19:25:25.373Z,75.90
2022-10-01T19:27:58.631Z,75.89
2022-10-01T19:30:28.058Z,75.85
2022-10-01T19:33:08.987Z,75.96
2022-10-01T19:35:37.709Z,76.20
2022-10-01T19:38:06.227Z,76.18
2022-10-01T19:40:50.730Z,76.13
2022-10-01T19:43:42.692Z,76.15
2022-10-01T19:46:26.115Z,76.14
2022-10-01T19:49:13.672Z,75.96
2022-10-01T19:51:46.114Z,76.04
2022-10-01T20:02:22.400Z,76.27
2022-10-01T20:24:32.347Z,76.50
2022-10-01T20:27:11.931Z,76.21
2022-10-01T20:29:47.085Z,76.11
2022-10-01T20:32:46.850Z,76.11
2022-10-01T20:35:32.119Z,76.26
2022-10-01T20:38:08.593Z,76.56
2022-10-01T20:41:00.615Z,76.52
2022-10-01T20:43:35.754Z,76.64
2022-10-01T20:46:27.150Z,76.48
2022-10-01T20:49:01.020Z,76.38
2022-10-01T20:52:31.225Z,76.33
2022-10-01T20:55:09.377Z,76.35
2022-10-01T20:57:50.258Z,76.52
2022-10-01T21:00:21.247Z,76.66
2022-10-01T21:02:54.321Z,76.55
2022-10-01T21:05:26.156Z,76.49
2022-10-01T21:08:10.128Z,76.70
2022-10-01T21:10:44.468Z,76.54
2022-10-01T21:13:19.393Z,76.27
2022-10-01T21:16:00.734Z,76.23
2022-10-01T21:18:57.628Z,76.35
2022-10-01T21:21:55.143Z,76.40
2022-10-01T21:24:39.971Z,76.48
2022-10-01T21:27:18.173Z,76.61
2022-10-01T21:33:51.734Z,76.64
2022-10-01T21:36:37.838Z,76.46
2022-10-01T21:39:09.577Z,76.52
2022-10-01T21:42:11.429Z,76.66
2022-10-01T21:45:14.626Z,76.81
2022-10-01T21:48:15.760Z,76.92
2022-10-01T21:50:55.992Z,77.01
2022-10-01T21:54:09.866Z,76.88
2022-10-01T21:56:44.609Z,76.74
2022-10-01T21:59:39.327Z,76.83
2022-10-01T22:02:17.786Z,76.83
2022-10-01T22:04:52.190Z,77.17
2022-10-01T22:07:40.971Z,77.16
2022-10-01T22:10:16.391Z,77.15
2022-10-01T22:12:47.050Z,77.10
2022-10-01T22:15:42.911Z,76.85
2022-10-01T22:18:31.649Z,77.11
2022-10-01T22:21:01.042Z,76.95
2022-10-01T22:23:31.681Z,77.02
2022-10-01T22:26:05.785Z,76.88
2022-10-01T22:28:38.762Z,76.87
2022-10-01T22:34:23.525Z,76.90
2022-10-01T22:37:01.778Z,76.72
2022-10-01T22:39:36.984Z,76.77
2022-10-01T22:42:33.642Z,76.65
2022-10-01T22:45:08.789Z,76.61
2022-10-01T22:47:54.992Z,76.72
2022-10-01T22:50:45.726Z,76.77
2022-10-01T22:53:20.957Z,76.84
2022-10-01T22:55:55.509Z,76.54
2022-10-01T22:58:59.278Z,76.34
2022-10-01T23:01:37.335Z,76.43
2022-10-01T23:04:35.455Z,76.22
2022-10-01T23:07:17.393Z,76.24
2022-10-01T23:10:07.790Z,76.26
2022-10-01T23:12:55.832Z,76.31
2022-10-01T23:15:24.805Z,76.25
2022-10-01T23:29:43.628Z,76.28
2022-10-01T23:32:27.883Z,76.13
2022-10-01T23:35:12.548Z,76.19
2022-10-01T23:38:00.178Z,76.20
2022-10-01T23:40:31.498Z,75.92
2022-10-01T23:43:25.351Z,76.10
2022-10-01T23:46:01.502Z,76.13
2022-10-01T23:48:37.692Z,76.06
2022-10-01T23:51:24.234Z,76.06
2022-10-01T23:54:12.132Z,76.11
2022-10-01T23:56:49.471Z,76.02
2022-10-01T23:59:40.798Z,75.95
